Terrys Fork, VA

7:59 PM EDT on April 28, 2017 (GMT -0400)
Mojito Creek Farm | | Change Station

Elev 2359 ft 36.98 °N, 80.18 °W | Updated 23 seconds ago

Clear
Clear
67.1 °F
Feels Like 67.1 °F
N
0.0
Wind Variable Wind from ESE

Today
High -- | Low -- °F
--% Chance of Precip.
Yesterday
High -- | Low -- °F
Precip. -- in
Pressure 30.01 in
Visibility 10.0 miles
Clouds Few 25000 ft
Dew Point 62 °F
Humidity 85%
Rainfall 0.06 in
Snow Depth Not available.
6:29 AM 8:07 PM
Waxing Crescent, 9% visible
METAR KROA 282354Z 17010KT 10SM FEW250 26/16 A3004 RMK AO2 SLP162 T02560161 10278 20250 51004
Pressure 30.01 in
Visibility 10.0 miles
Clouds Few 25000 ft
Dew Point 62 °F
Humidity 85%
Rainfall 0.06 in
Snow Depth Not available.
6:29 AM 8:07 PM
Waxing Crescent, 9% visible
METAR KROA 282354Z 17010KT 10SM FEW250 26/16 A3004 RMK AO2 SLP162 T02560161 10278 20250 51004

Get Severe Weather Alerts

Thanks for signing up!

Be on the lookout for a verification email in your inbox.

You'll start receiving the daily forecast at 8 AM.

×

10-Day Weather Forecast

Almanac

Astronomy

Apr. 28, 2017 Rise Set
Actual Time
Civil Twilight
Nautical Twilight
Astronomical Twilight
Moon
Length of Visible Light
Length of Day
Tomorrow will be .
, % of the Moon is Illuminated

Today's Extremes

State Highs State Lows

Community

WunderPhotos

WunderBlog® & News

Nearby

Air Quality

  Air Quality AQ Index Pollutant
Not available.

Snow Depth

Station Depth Elevation

Earthquake Activity

City Distance Mag. Time & Date
Minimum magnitude displayed is 2.5.

Coastal Water Temperatures

Place Temperature

Stations

Nearby Weather Stations

Station Location Temp. Windchill Dew Point Humidity Wind Precip. Elev Updated Type
                   

Watches & Warnings

There are currently no watches in effect.